createdAt,value
2019-01-25T00:01:49.805Z,24.73
2019-01-25T00:04:19.919Z,23.77
2019-01-25T00:06:51.129Z,24.53
2019-01-25T00:09:22.767Z,24.37
2019-01-25T00:11:52.681Z,25.27
2019-01-25T00:14:26.465Z,24.23
2019-01-25T00:16:58.998Z,23.47
2019-01-25T00:19:29.033Z,24.93
2019-01-25T00:22:10.938Z,22.57
2019-01-25T00:24:44.580Z,22.83
2019-01-25T00:27:16.914Z,25.03
2019-01-25T00:29:48.561Z,25.53
2019-01-25T00:32:20.925Z,24.20
2019-01-25T00:34:51.302Z,24.27
2019-01-25T00:37:21.557Z,24.00
2019-01-25T00:39:51.803Z,24.60
2019-01-25T00:42:24.930Z,23.70
2019-01-25T00:44:55.605Z,23.13
2019-01-25T00:47:30.792Z,23.53
2019-01-25T00:50:02.728Z,24.57
2019-01-25T00:52:32.916Z,26.10
2019-01-25T00:55:03.530Z,25.70
2019-01-25T00:57:36.882Z,24.40
2019-01-25T01:00:27.305Z,23.90
2019-01-25T01:03:15.543Z,25.80
2019-01-25T01:05:46.385Z,24.60
2019-01-25T01:08:19.435Z,24.07
2019-01-25T01:10:56.519Z,25.50
2019-01-25T01:13:27.440Z,26.20
2019-01-25T01:16:07.382Z,24.93
2019-01-25T01:18:38.465Z,25.93
2019-01-25T01:21:09.134Z,25.50
2019-01-25T01:23:41.833Z,23.90
2019-01-25T01:26:11.879Z,25.53
2019-01-25T01:28:42.323Z,23.00
2019-01-25T01:31:12.359Z,25.07
2019-01-25T01:33:42.520Z,25.40
2019-01-25T01:36:13.058Z,26.17
2019-01-25T01:38:43.751Z,24.20
2019-01-25T01:41:18.461Z,25.90
2019-01-25T01:43:48.495Z,25.03
2019-01-25T01:46:18.567Z,25.83
2019-01-25T01:48:52.929Z,26.20
2019-01-25T01:51:25.612Z,24.23
2019-01-25T01:53:55.849Z,24.97
2019-01-25T01:56:29.851Z,27.80
2019-01-25T01:59:03.941Z,26.63
2019-01-25T02:01:34.030Z,27.23
2019-01-25T02:04:03.898Z,27.47
2019-01-25T02:06:33.772Z,25.90
2019-01-25T02:09:05.802Z,26.67
2019-01-25T02:11:35.785Z,25.93
2019-01-25T02:14:05.802Z,26.63
2019-01-25T02:16:41.678Z,25.87
2019-01-25T02:19:11.733Z,25.77
2019-01-25T02:21:42.028Z,27.93
2019-01-25T02:24:11.922Z,25.57
2019-01-25T02:27:20.536Z,26.37
2019-01-25T02:29:50.626Z,25.63
2019-01-25T02:32:21.388Z,22.20
2019-01-25T02:34:51.320Z,24.40
2019-01-25T02:37:21.168Z,23.87
2019-01-25T02:39:51.480Z,25.77
2019-01-25T02:42:21.817Z,21.60
2019-01-25T02:44:51.277Z,21.73
2019-01-25T02:47:21.932Z,21.73
2019-01-25T02:49:52.203Z,20.00
2019-01-25T02:52:23.294Z,21.48
2019-01-25T02:54:53.438Z,20.20
2019-01-25T02:57:23.422Z,20.08
2019-01-25T02:59:53.309Z,21.83
2019-01-25T03:02:27.332Z,23.47
2019-01-25T03:04:56.882Z,20.80
2019-01-25T03:07:27.441Z,21.67
2019-01-25T03:09:57.169Z,21.50
2019-01-25T03:12:26.914Z,21.57
2019-01-25T03:14:56.875Z,22.07
2019-01-25T03:17:26.921Z,20.30
2019-01-25T03:19:56.778Z,21.00
2019-01-25T03:22:27.427Z,21.33
2019-01-25T03:24:57.157Z,21.67
2019-01-25T03:27:28.028Z,22.07
2019-01-25T03:30:09.635Z,22.37
2019-01-25T03:32:39.667Z,20.27
2019-01-25T03:35:11.691Z,21.77
2019-01-25T03:37:42.576Z,22.37
2019-01-25T03:40:18.295Z,20.50
2019-01-25T03:42:48.278Z,20.23
2019-01-25T03:45:21.779Z,21.07
2019-01-25T03:47:52.876Z,19.20
2019-01-25T03:50:27.971Z,20.07
2019-01-25T03:52:58.405Z,21.70
2019-01-25T03:55:28.340Z,20.23
2019-01-25T03:57:58.541Z,19.80
2019-01-25T04:00:32.960Z,19.60
2019-01-25T04:03:03.510Z,18.67
2019-01-25T04:05:34.328Z,20.90
2019-01-25T04:08:06.299Z,18.60
2019-01-25T04:10:36.225Z,18.37
2019-01-25T04:13:06.894Z,18.90
2019-01-25T04:15:36.891Z,19.33
2019-01-25T04:18:07.042Z,19.60
2019-01-25T04:20:36.925Z,19.57
2019-01-25T04:23:07.631Z,17.47
2019-01-25T04:25:37.530Z,19.00
2019-01-25T04:28:07.985Z,18.70
2019-01-25T04:30:37.666Z,18.77
2019-01-25T04:33:07.651Z,18.60
2019-01-25T04:35:37.515Z,17.87
2019-01-25T04:38:07.832Z,19.50
2019-01-25T04:40:37.945Z,18.07
2019-01-25T04:43:09.838Z,19.57
2019-01-25T04:45:41.773Z,18.90
2019-01-25T04:48:15.438Z,20.87
2019-01-25T04:50:45.813Z,18.33
2019-01-25T04:53:15.764Z,18.10
2019-01-25T04:55:45.653Z,18.13
2019-01-25T04:58:19.818Z,18.27
2019-01-25T05:00:50.089Z,18.90
2019-01-25T05:03:20.420Z,20.43
2019-01-25T05:05:51.462Z,19.50
2019-01-25T05:08:28.143Z,19.77
2019-01-25T05:10:58.037Z,19.43
2019-01-25T05:13:28.903Z,20.07
2019-01-25T05:15:59.553Z,19.27
2019-01-25T05:18:30.879Z,20.60
2019-01-25T05:21:00.871Z,21.23
2019-01-25T05:23:31.056Z,19.63
2019-01-25T05:26:01.215Z,20.63
2019-01-25T05:28:33.566Z,21.20
2019-01-25T05:31:07.831Z,20.60
2019-01-25T05:33:37.925Z,21.93
2019-01-25T05:36:08.161Z,21.80
2019-01-25T05:38:53.087Z,23.27
2019-01-25T05:41:37.189Z,23.53
2019-01-25T05:44:08.506Z,23.00
2019-01-25T05:46:43.704Z,31.77
2019-01-25T05:49:25.274Z,29.00
2019-01-25T05:52:26.307Z,25.40
2019-01-25T05:54:58.532Z,26.57
2019-01-25T05:57:30.500Z,25.67
2019-01-25T06:00:03.147Z,24.40
2019-01-25T06:02:32.888Z,23.00
2019-01-25T06:05:03.206Z,23.70
2019-01-25T06:10:34.816Z,24.70
2019-01-25T06:13:05.531Z,24.50
2019-01-25T06:15:38.940Z,24.40
2019-01-25T06:18:09.227Z,25.70
2019-01-25T06:20:55.814Z,22.90
2019-01-25T06:23:16.934Z,24.80
2019-01-25T06:26:06.161Z,23.77
2019-01-25T06:28:38.254Z,25.63
2019-01-25T06:31:09.546Z,25.10
2019-01-25T06:44:06.230Z,25.53
2019-01-25T06:46:36.079Z,25.80
2019-01-25T06:49:07.663Z,24.30
2019-01-25T06:52:16.224Z,24.43
2019-01-25T06:54:46.283Z,28.30
2019-01-25T06:57:37.750Z,24.57
2019-01-25T07:00:10.036Z,27.77
2019-01-25T07:02:41.135Z,33.47
2019-01-25T07:05:12.682Z,30.67
2019-01-25T07:07:44.980Z,27.37
2019-01-25T07:10:20.286Z,23.80
2019-01-25T07:12:55.192Z,27.07
2019-01-25T07:15:25.967Z,25.40
2019-01-25T07:17:56.435Z,25.93
2019-01-25T07:20:26.746Z,24.27
2019-01-25T07:22:56.783Z,27.00
2019-01-25T07:25:26.326Z,25.50
2019-01-25T07:27:56.428Z,25.33
2019-01-25T07:30:29.308Z,26.83
2019-01-25T07:32:59.266Z,25.40
2019-01-25T07:35:29.647Z,25.37
2019-01-25T07:37:59.223Z,26.80
2019-01-25T07:40:29.249Z,25.40
2019-01-25T07:42:58.448Z,29.10
2019-01-25T07:45:28.379Z,27.73
2019-01-25T07:47:58.037Z,24.90
2019-01-25T07:50:27.491Z,23.50
2019-01-25T07:52:57.409Z,26.67
2019-01-25T07:55:28.600Z,25.97
2019-01-25T07:57:58.317Z,24.43
2019-01-25T08:00:27.961Z,26.83
2019-01-25T08:02:57.802Z,26.93
2019-01-25T08:05:27.647Z,26.50
2019-01-25T08:07:57.397Z,29.50
2019-01-25T08:10:27.437Z,27.87
2019-01-25T08:12:59.966Z,27.00
2019-01-25T08:15:30.177Z,26.17
2019-01-25T08:18:00.081Z,28.83
2019-01-25T08:20:30.252Z,29.60
2019-01-25T08:23:00.161Z,24.90
2019-01-25T08:25:30.382Z,25.40
2019-01-25T08:28:00.124Z,26.80
2019-01-25T08:30:29.540Z,25.77
2019-01-25T08:33:00.031Z,26.47
2019-01-25T08:35:30.108Z,26.07
2019-01-25T08:37:59.810Z,27.93
2019-01-25T08:40:32.097Z,27.73
2019-01-25T08:43:01.549Z,26.33
2019-01-25T08:45:31.424Z,25.53
2019-01-25T08:48:01.124Z,26.00
2019-01-25T08:50:31.160Z,27.30
2019-01-25T08:53:01.163Z,26.50
2019-01-25T08:55:31.010Z,28.23
2019-01-25T08:58:00.553Z,26.80
2019-01-25T09:00:29.866Z,27.27
2019-01-25T09:02:59.698Z,27.43
2019-01-25T09:05:30.857Z,26.97
2019-01-25T09:08:00.635Z,25.10
2019-01-25T09:10:30.483Z,25.23
2019-01-25T09:13:00.273Z,26.30
2019-01-25T09:15:30.502Z,26.87
2019-01-25T09:18:00.313Z,25.57
2019-01-25T09:20:30.260Z,24.87
2019-01-25T09:22:59.949Z,24.40
2019-01-25T09:25:29.623Z,25.40
2019-01-25T09:27:59.360Z,25.37
2019-01-25T09:30:29.058Z,24.30
2019-01-25T09:32:58.624Z,24.10
2019-01-25T09:35:28.231Z,25.00
2019-01-25T09:49:55.221Z,23.00
2019-01-25T09:52:26.318Z,21.73
2019-01-25T09:54:56.411Z,22.87
2019-01-25T09:57:26.403Z,21.80
2019-01-25T09:59:56.612Z,23.30
2019-01-25T10:02:26.497Z,21.00
2019-01-25T10:04:59.304Z,23.40
2019-01-25T10:07:29.001Z,22.33
2019-01-25T10:10:00.003Z,21.13
2019-01-25T10:12:34.784Z,21.87
2019-01-25T10:15:01.450Z,22.93
2019-01-25T10:17:31.378Z,24.10
2019-01-25T10:20:01.629Z,24.97
2019-01-25T10:22:33.842Z,24.37
2019-01-25T10:25:04.111Z,24.60
2019-01-25T10:27:34.135Z,22.37
2019-01-25T10:30:06.491Z,22.53
2019-01-25T10:32:36.445Z,24.00
2019-01-25T10:35:09.890Z,22.60
2019-01-25T10:37:39.865Z,22.47
2019-01-25T10:40:12.381Z,22.37
2019-01-25T10:42:45.550Z,23.60
2019-01-25T10:45:19.863Z,23.60
2019-01-25T10:47:50.074Z,23.00
2019-01-25T10:50:20.505Z,21.20
2019-01-25T10:52:50.557Z,24.70
2019-01-25T10:55:20.547Z,22.57
2019-01-25T10:57:50.529Z,22.20
2019-01-25T11:00:20.670Z,20.97
2019-01-25T11:02:58.489Z,20.10
2019-01-25T11:05:27.717Z,22.80
2019-01-25T11:07:57.340Z,21.23
2019-01-25T11:10:28.054Z,23.17
2019-01-25T11:13:01.149Z,23.13
2019-01-25T11:15:28.798Z,21.60
2019-01-25T11:17:59.556Z,21.07
2019-01-25T11:20:29.018Z,21.00
2019-01-25T11:22:59.763Z,22.03
2019-01-25T11:25:31.766Z,21.77
2019-01-25T11:28:01.990Z,22.20
2019-01-25T11:30:33.386Z,19.90
2019-01-25T11:33:03.178Z,20.47
2019-01-25T11:35:32.987Z,21.77
2019-01-25T11:38:02.962Z,19.70
2019-01-25T11:40:39.973Z,18.90
2019-01-25T11:43:11.045Z,20.50
2019-01-25T11:45:41.099Z,22.00
2019-01-25T11:48:13.673Z,19.47
2019-01-25T11:50:44.504Z,20.17
2019-01-25T11:53:14.622Z,18.80
2019-01-25T11:55:44.381Z,20.60
2019-01-25T11:58:13.919Z,22.13
2019-01-25T12:00:45.725Z,20.80
2019-01-25T12:03:15.718Z,22.47
2019-01-25T12:05:45.681Z,21.27
2019-01-25T12:08:15.922Z,19.07
2019-01-25T12:10:45.598Z,19.27
2019-01-25T12:13:16.151Z,19.50
2019-01-25T12:15:46.491Z,19.70
2019-01-25T12:18:16.185Z,18.40
2019-01-25T12:20:45.828Z,18.57
2019-01-25T12:23:15.460Z,17.50
2019-01-25T12:25:44.773Z,14.00
2019-01-25T12:28:14.606Z,13.47
2019-01-25T12:30:46.567Z,14.53
2019-01-25T12:33:16.857Z,13.73
2019-01-25T12:35:47.563Z,15.03
2019-01-25T12:38:17.905Z,13.83
2019-01-25T12:40:47.952Z,14.73
2019-01-25T12:43:23.849Z,14.23
2019-01-25T12:45:50.332Z,13.60
2019-01-25T12:48:20.935Z,17.10
2019-01-25T12:51:33.253Z,14.38
2019-01-25T12:54:03.294Z,14.00
2019-01-25T12:56:33.256Z,11.83
2019-01-25T12:59:03.202Z,10.60
2019-01-25T13:01:34.971Z,9.80
2019-01-25T13:04:04.993Z,9.70
2019-01-25T13:06:34.488Z,9.43
2019-01-25T13:09:05.741Z,9.57
2019-01-25T13:11:35.301Z,8.87
2019-01-25T13:14:04.977Z,9.97
2019-01-25T13:16:34.499Z,11.37
2019-01-25T13:19:04.683Z,10.90
2019-01-25T13:21:33.929Z,8.23
2019-01-25T13:24:03.997Z,9.03
2019-01-25T13:26:33.995Z,9.57
2019-01-25T13:29:04.311Z,8.67
2019-01-25T13:31:34.077Z,8.97
2019-01-25T13:34:04.034Z,8.80
2019-01-25T13:36:34.417Z,9.97
2019-01-25T13:39:06.193Z,10.33
2019-01-25T13:41:36.682Z,9.60
2019-01-25T13:44:08.206Z,8.67
2019-01-25T13:46:37.935Z,12.37
2019-01-25T13:49:08.861Z,9.10
2019-01-25T13:51:41.717Z,9.70
2019-01-25T13:54:11.569Z,9.10
2019-01-25T13:56:41.258Z,8.37
2019-01-25T13:59:10.816Z,10.30
2019-01-25T14:01:41.231Z,10.10
2019-01-25T14:04:11.354Z,9.67
2019-01-25T14:06:43.755Z,8.43
2019-01-25T14:09:14.186Z,7.90
2019-01-25T14:11:44.613Z,8.07
2019-01-25T14:14:14.080Z,9.10
2019-01-25T14:16:43.733Z,9.10
2019-01-25T14:19:14.170Z,7.80
2019-01-25T14:21:44.040Z,9.73
2019-01-25T14:24:16.652Z,10.17
2019-01-25T14:26:46.101Z,8.50
2019-01-25T14:29:16.056Z,10.63
2019-01-25T14:31:45.658Z,8.00
2019-01-25T14:34:18.126Z,9.07
2019-01-25T14:36:50.761Z,9.80
2019-01-25T14:39:26.566Z,11.27
2019-01-25T14:42:04.159Z,10.60
2019-01-25T14:44:33.867Z,11.00
2019-01-25T14:47:03.408Z,14.03
2019-01-25T14:49:32.955Z,13.83
2019-01-25T14:52:02.549Z,12.10
2019-01-25T14:54:32.318Z,10.20
2019-01-25T14:57:01.746Z,8.60
2019-01-25T14:59:31.147Z,9.23
2019-01-25T15:02:00.791Z,8.90
2019-01-25T15:04:30.528Z,10.00
2019-01-25T15:07:00.043Z,11.40
2019-01-25T15:09:29.462Z,10.43
2019-01-25T15:12:01.768Z,11.13
2019-01-25T15:14:31.108Z,14.20
2019-01-25T15:17:00.781Z,10.37
2019-01-25T15:19:30.441Z,10.20
2019-01-25T15:25:42.113Z,10.23
2019-01-25T15:28:14.614Z,8.73
2019-01-25T15:30:46.258Z,10.40
2019-01-25T15:33:16.026Z,10.97
2019-01-25T15:35:46.009Z,11.47
2019-01-25T15:38:19.232Z,9.80
2019-01-25T15:40:49.512Z,10.90
2019-01-25T15:43:20.398Z,12.87
2019-01-25T15:45:50.832Z,13.10
2019-01-25T15:48:20.884Z,15.10
2019-01-25T15:50:51.337Z,14.13
2019-01-25T15:53:21.094Z,15.93
2019-01-25T15:55:50.812Z,15.80
2019-01-25T15:58:27.620Z,17.20
2019-01-25T16:00:57.476Z,16.10
2019-01-25T16:03:27.471Z,15.90
2019-01-25T16:05:57.446Z,14.27
2019-01-25T16:08:27.284Z,14.77
2019-01-25T16:10:56.867Z,14.77
2019-01-25T16:13:26.493Z,13.97
2019-01-25T16:15:56.074Z,13.33
2019-01-25T16:18:26.036Z,14.63
2019-01-25T16:20:55.847Z,12.17
2019-01-25T16:23:25.399Z,13.07
2019-01-25T16:25:56.370Z,13.27
2019-01-25T16:28:27.492Z,12.73
2019-01-25T16:30:56.858Z,14.00
2019-01-25T16:33:26.667Z,12.03
2019-01-25T16:35:56.200Z,12.43
2019-01-25T16:38:25.632Z,13.67
2019-01-25T16:40:55.505Z,11.93
2019-01-25T16:43:26.210Z,14.63
2019-01-25T16:45:55.580Z,17.53
2019-01-25T16:48:25.931Z,16.70
2019-01-25T16:50:55.672Z,15.80
2019-01-25T16:53:25.578Z,16.10
2019-01-25T16:55:55.456Z,17.43
2019-01-25T16:58:24.950Z,17.50
2019-01-25T17:00:54.282Z,14.97
2019-01-25T17:03:23.481Z,15.00
2019-01-25T17:05:53.018Z,16.57
2019-01-25T17:08:22.694Z,16.00
2019-01-25T17:10:52.392Z,18.70
2019-01-25T17:13:22.145Z,23.00
2019-01-25T17:15:51.780Z,18.83
2019-01-25T17:18:21.702Z,18.20
2019-01-25T17:20:51.746Z,16.23
2019-01-25T17:23:21.171Z,19.47
2019-01-25T17:25:50.511Z,21.47
2019-01-25T17:28:21.093Z,17.70
2019-01-25T17:30:50.594Z,16.93
2019-01-25T17:33:19.880Z,16.83
2019-01-25T17:35:49.594Z,16.33
2019-01-25T17:38:19.274Z,15.20
2019-01-25T17:40:48.751Z,19.47
2019-01-25T17:43:18.198Z,17.00
2019-01-25T17:45:47.579Z,16.40
2019-01-25T17:48:17.042Z,15.43
2019-01-25T17:50:46.481Z,16.00
2019-01-25T17:53:16.031Z,15.47
2019-01-25T17:55:45.347Z,15.10
2019-01-25T17:58:14.619Z,15.63
2019-01-25T18:00:53.397Z,13.53
2019-01-25T18:44:56.885Z,13.20
2019-01-25T18:47:27.444Z,14.27
2019-01-25T18:49:57.589Z,13.73
2019-01-25T18:52:31.241Z,13.60
2019-01-25T18:55:05.380Z,13.70
2019-01-25T18:57:35.477Z,13.60
2019-01-25T19:00:26.246Z,21.60
2019-01-25T19:02:56.495Z,15.13
2019-01-25T19:05:36.425Z,13.90
2019-01-25T19:08:06.816Z,14.00
2019-01-25T19:10:49.963Z,14.80
2019-01-25T19:13:21.355Z,14.20
2019-01-25T19:15:51.208Z,12.73
2019-01-25T19:18:21.314Z,12.63
2019-01-25T19:20:52.972Z,15.80
2019-01-25T19:23:23.255Z,13.60
2019-01-25T19:25:58.159Z,14.13
2019-01-25T19:28:28.477Z,12.67
2019-01-25T19:31:02.954Z,12.13
2019-01-25T19:33:30.359Z,11.00
2019-01-25T19:36:01.264Z,11.67
2019-01-25T19:38:35.529Z,12.70
2019-01-25T19:41:11.675Z,10.90
2019-01-25T19:44:17.157Z,10.80
2019-01-25T19:46:49.214Z,11.03
2019-01-25T19:49:33.835Z,10.72
2019-01-25T19:52:16.028Z,10.57
2019-01-25T19:54:56.039Z,10.67
2019-01-25T19:57:28.720Z,10.77
2019-01-25T20:00:11.450Z,9.63
2019-01-25T20:02:51.452Z,11.03
2019-01-25T20:08:05.367Z,10.93
2019-01-25T20:10:40.769Z,9.07
2019-01-25T20:13:14.246Z,11.37
2019-01-25T20:16:03.061Z,12.40
2019-01-25T20:18:53.897Z,13.60
2019-01-25T20:21:25.090Z,11.57
2019-01-25T20:24:13.208Z,12.60
2019-01-25T20:26:43.873Z,11.00
2019-01-25T20:29:15.180Z,10.93
2019-01-25T20:31:45.472Z,13.03
2019-01-25T20:34:23.988Z,11.47
2019-01-25T20:36:55.633Z,11.27
2019-01-25T20:39:27.603Z,10.90
2019-01-25T20:42:08.472Z,11.40
2019-01-25T20:44:57.628Z,11.17
2019-01-25T20:47:31.834Z,10.73
2019-01-25T20:50:07.741Z,11.00
2019-01-25T20:52:46.918Z,11.83
2019-01-25T20:55:18.029Z,10.77
2019-01-25T20:58:22.481Z,11.80
2019-01-25T21:04:03.971Z,9.67
2019-01-25T21:06:35.266Z,10.53
2019-01-25T21:09:08.558Z,9.47
2019-01-25T21:11:38.762Z,9.67
2019-01-25T21:14:10.030Z,10.33
2019-01-25T21:16:40.563Z,9.40
2019-01-25T21:19:11.573Z,10.10
2019-01-25T21:21:41.587Z,9.70
2019-01-25T21:24:20.623Z,10.33
2019-01-25T21:26:49.185Z,9.27
2019-01-25T21:29:19.802Z,10.27
2019-01-25T21:31:50.971Z,9.17
2019-01-25T21:34:25.037Z,10.30
2019-01-25T21:37:07.535Z,8.77
2019-01-25T21:39:39.180Z,10.20
2019-01-25T21:42:10.206Z,9.03
2019-01-25T21:44:41.095Z,8.27
2019-01-25T21:47:10.882Z,9.00
2019-01-25T21:49:40.999Z,8.97
2019-01-25T21:52:11.014Z,9.90
2019-01-25T21:54:40.983Z,9.40
2019-01-25T21:57:11.807Z,9.10
2019-01-25T21:59:44.871Z,9.60
2019-01-25T22:02:15.095Z,8.80
2019-01-25T22:04:47.135Z,8.40
2019-01-25T22:07:18.179Z,8.67
2019-01-25T22:09:48.328Z,8.70
2019-01-25T22:12:18.091Z,8.20
2019-01-25T22:14:48.341Z,7.90
2019-01-25T22:17:18.307Z,9.03
2019-01-25T22:19:49.782Z,9.80
2019-01-25T22:22:23.098Z,9.13
2019-01-25T22:24:52.058Z,8.63
2019-01-25T22:27:21.876Z,9.37
2019-01-25T22:29:51.471Z,8.67
2019-01-25T22:32:21.658Z,8.53
2019-01-25T22:34:51.397Z,8.80
2019-01-25T22:37:21.224Z,9.00
2019-01-25T22:39:53.105Z,9.27
2019-01-25T22:42:23.250Z,10.10
2019-01-25T22:44:54.522Z,8.43
2019-01-25T22:47:25.276Z,8.17
2019-01-25T22:49:55.689Z,8.43
2019-01-25T22:52:28.863Z,9.03
2019-01-25T22:55:00.533Z,9.27
2019-01-25T22:57:34.401Z,10.07
2019-01-25T23:00:05.849Z,9.87
2019-01-25T23:02:36.041Z,8.67
2019-01-25T23:05:28.308Z,10.00
2019-01-25T23:08:00.862Z,10.03
2019-01-25T23:10:30.885Z,9.53
2019-01-25T23:13:00.972Z,10.70
2019-01-25T23:15:31.209Z,9.67
2019-01-25T23:18:01.687Z,9.20
2019-01-25T23:20:34.866Z,10.27
2019-01-25T23:23:04.690Z,8.60
2019-01-25T23:25:35.116Z,9.17
2019-01-25T23:28:09.947Z,9.30
2019-01-25T23:30:36.883Z,8.83
2019-01-25T23:33:07.014Z,8.73
2019-01-25T23:35:36.958Z,8.87
2019-01-25T23:38:06.966Z,9.23
2019-01-25T23:40:39.291Z,9.47
2019-01-25T23:43:09.090Z,8.77
2019-01-25T23:45:48.891Z,8.60
2019-01-25T23:48:19.463Z,8.83
2019-01-25T23:50:49.442Z,9.13
2019-01-25T23:53:36.431Z,7.57
2019-01-25T23:56:31.929Z,8.00
2019-01-25T23:59:01.854Z,8.27
